• Join FlightAware (Why Join?)
  • Login
  • US Flag 
09:43PM EDT


 

Airport Tracker/Info


-or-


 

Live Flight TrackerFlight Track Log ✈ N3KP ✈ 17-Apr-2013 ✈ KPBX - KUWL

Flight Track Log - Related Links

Times and Time Zones

All times are in EDT time to prevent confusion due to time zone crossing. See the N3KP flight status page for this flight to view local times or setup timezone preferences in your user account.

Time Position Orientation Groundspeed Altitude Reporting Facility
EDT Latitude Longitude Course Direction KTS MPH feet Rate Location/Type
02:19PM 37.6656 -82.6875 316° Northwest 101 116 5,200  Level Indianapolis Center
02:20PM 37.6867 -82.7114 318° Northwest 102 117 5,900 600 Climbing Indianapolis Center
02:21PM 37.7069 -82.7339 319° Northwest 99 114 6,500 540 Climbing Indianapolis Center
02:22PM 37.7267 -82.7567 318° Northwest 98 113 7,100 600 Climbing Indianapolis Center
02:23PM 37.7514 -82.7844 318° Northwest 100 115 7,800 600 Climbing Indianapolis Center
02:24PM 37.7438 -82.7771 322° Northwest  Level FlightAware Approximate
02:24PM 37.7728 -82.8086 318° Northwest 103 119 8,400  Level Indianapolis Center
02:26PM 37.7939 -82.8331 318° Northwest 102 117 8,900 540 Climbing Indianapolis Center
02:27PM 37.8156 -82.8572 319° Northwest 104 120 9,600 600 Climbing Indianapolis Center
02:28PM 37.8367 -82.8828 316° Northwest 105 121 10,200 480 Climbing Indianapolis Center
02:29PM 37.8575 -82.9072 317° Northwest 104 120 10,700 480 Climbing Indianapolis Center
02:30PM 37.8789 -82.9314 318° Northwest 104 120 11,200 540 Climbing Indianapolis Center
02:31PM 37.9039 -82.9603 318° Northwest 103 119 11,900 360 Climbing Indianapolis Center
02:32PM 37.9256 -82.9856 317° Northwest 105 121 12,000  Climbing Indianapolis Center
02:33PM 37.9547 -83.0164 320° Northwest 126 145 12,000  Level Indianapolis Center
02:34PM 37.9853 -83.0542 316° Northwest 147 169 12,000  Level Indianapolis Center
02:35PM 38.0153 -83.0908 316° Northwest 150 173 12,000  Level Indianapolis Center
02:36PM 38.0450 -83.1258 317° Northwest 147 169 12,000  Level Indianapolis Center
02:37PM 38.0800 -83.1650 319° Northwest 146 168 12,000  Level Indianapolis Center
02:38PM 38.1086 -83.1989 317° Northwest 143 165 12,000  Level Indianapolis Center
02:39PM 38.1367 -83.2325 317° Northwest 141 162 12,000  Level Indianapolis Center
02:40PM 38.1667 -83.2653 319° Northwest 142 163 12,000  Level Indianapolis Center
02:41PM 38.1950 -83.2997 316° Northwest 142 163 12,000  Level Indianapolis Center
02:42PM 38.2247 -83.3331 319° Northwest 142 163 12,000  Level Indianapolis Center
02:43PM 38.2586 -83.3717 318° Northwest 141 162 12,000  Level Indianapolis Center
02:44PM 38.2875 -83.4069 316° Northwest 142 163 12,000  Level Indianapolis Center
02:45PM 38.3147 -83.4397 317° Northwest 138 159 12,000  Level Indianapolis Center
02:46PM 38.3453 -83.4733 319° Northwest 143 165 12,000  Level Indianapolis Center
02:47PM 38.3736 -83.5092 315° West 143 165 12,000  Level Indianapolis Center
02:48PM 38.4072 -83.5494 317° Northwest 141 162 12,000  Level Indianapolis Center
02:49PM 38.4367 -83.5836 318° Northwest 143 165 12,000  Level Indianapolis Center
02:50PM 38.4658 -83.6189 317° Northwest 144 166 12,000  Level Indianapolis Center
02:51PM 38.4950 -83.6528 318° Northwest 143 165 12,000  Level Indianapolis Center
02:52PM 38.5264 -83.6858 321° Northwest 146 168 12,000  Level Indianapolis Center
02:53PM 38.5553 -83.7222 315° West 145 167 12,000  Level Indianapolis Center
02:54PM 38.5889 -83.7625 317° Northwest 144 166 12,000  Level Indianapolis Center
02:55PM 38.6192 -83.7975 318° Northwest 146 168 12,000  Level Indianapolis Center
02:56PM 38.6469 -83.8322 316° Northwest 147 169 12,000  Level Indianapolis Center
02:57PM 38.6767 -83.8669 318° Northwest 145 167 12,000  Level Indianapolis Center
02:58PM 38.7072 -83.9039 317° Northwest 148 170 12,000  Level Indianapolis Center
02:59PM 38.7369 -83.9414 315° West 148 170 12,000  Level Indianapolis Center
03:01PM 38.7714 -83.9806 318° Northwest 145 167 12,000  Level Indianapolis Center
03:02PM 38.8028 -84.0167 318° Northwest 148 170 12,000  Level Indianapolis Center
03:03PM 38.8331 -84.0536 316° Northwest 148 170 12,000  Level Indianapolis Center
03:04PM 38.8633 -84.0911 316° Northwest 150 173 12,000  Level Indianapolis Center
03:05PM 38.8925 -84.1272 316° Northwest 145 167 12,000  Level Indianapolis Center
03:06PM 38.9233 -84.1619 319° Northwest 146 168 12,000  Level Indianapolis Center
03:07PM 38.9531 -84.1997 315° West 147 169 12,000  Level Indianapolis Center
03:08PM 38.9842 -84.2353 318° Northwest 148 170 12,000  Level Indianapolis Center
03:09PM 39.0189 -84.2772 317° Northwest 147 169 12,000  Level Indianapolis Center
03:10PM 39.0494 -84.3131 318° Northwest 147 169 12,000  Level Indianapolis Center
03:11PM 39.0797 -84.3486 318° Northwest 146 168 12,000  Level Indianapolis Center
03:12PM 39.1089 -84.3869 314° West 147 169 12,000  Level Indianapolis Center
03:13PM 39.1389 -84.4225 317° Northwest 147 169 12,000  Level Indianapolis Center
03:14PM 39.1700 -84.4589 318° Northwest 150 173 12,000 -240 Level Indianapolis Center
03:15PM 39.2011 -84.4964 317° Northwest 152 175 11,600 -420 Descending Indianapolis Center
03:16PM 39.2350 -84.5381 316° Northwest 161 185 11,200 -540 Descending Indianapolis Center
03:17PM 39.2767 -84.5872 318° Northwest 167 192 10,600 -660 Descending Indianapolis Center
03:18PM 39.3125 -84.6311 317° Northwest 171 197 9,900 -720 Descending Indianapolis Center
03:18PM 39.3333 -84.6500 325° Northwest 178 205 9,600 -600 Descending Cincinnati TRACON
03:20PM 39.3667 -84.7000 311° West 179 206 9,000 -600 Descending Cincinnati TRACON
03:20PM 39.3856 -84.7203 320° Northwest 177 204 8,700 -540 Descending Indianapolis Center
03:21PM 39.4217 -84.7631 318° Northwest 177 204 8,200 -360 Descending Indianapolis Center
03:22PM 39.4550 -84.8058 315° West 173 199 8,000 -120 Descending Indianapolis Center
03:23PM 39.4825 -84.8433 314° West 162 186 8,000  Level Indianapolis Center
03:24PM 39.5136 -84.8778 320° Northwest 152 175 8,000 -300 Level Indianapolis Center
03:25PM 39.5475 -84.9206 316° Northwest 146 168 7,400 -600 Descending Indianapolis Center
03:26PM 39.5831 -84.9606 319° Northwest 154 177 6,800 -600 Descending Indianapolis Center
03:27PM 39.6211 -84.9981 323° Northwest 161 185 6,200 -660 Descending Indianapolis Center
03:28PM 39.6603 -85.0356 324° Northwest 167 192 5,500 -720 Descending Indianapolis Center
03:29PM 39.6972 -85.0742 321° Northwest 169 194 4,800 -780 Descending Indianapolis Center
03:31PM 39.7833 -85.1333 332° Northwest 181 208 3,200 -600 Descending Indianapolis TRACON
03:33PM 39.8333 -85.1667 333° Northwest 150 173 3,000 -240 Descending Indianapolis TRACON
03:34PM 39.8500 -85.2000 303° West 130 150 2,800 -240 Descending Indianapolis TRACON